Kelso, WA (98626)

8:11 PM PST on February 07, 2016 (GMT -0800)
Kelso | | Change Station
CLOSE
Current Station
Personal Weather Station
Location: Kelso, WA
Elevation: 23 ft
Nearby Weather Stations

Elev 23 ft 46.16 °N, 122.91 °W | Updated 10 seconds ago

Clear
Clear
48.9 °F
Feels Like 49 °F
N
1.1
Wind Variable Wind from North
Gusts 3.1 mph

Today
High -- | Low -- °F
--% Chance of Precip.
Yesterday
High -- | Low -- °F
Precip. -- in
Pressure 30.48 in
Visibility 10.0 miles
Clouds Clear
Windchill 49 °F
Dew Point 41 °F
Humidity 74%
Rainfall 0.00 in
Snow Depth Not available.
7:26 AM 5:25 PM
Waning Crescent, 0% visible
METAR KKLS 080355Z AUTO 00000KT 10SM CLR 09/06 A3048 RMK AO1
Pressure 30.48 in
Visibility 10.0 miles
Clouds Clear
Windchill 49 °F
Dew Point 41 °F
Humidity 74%
Rainfall 0.00 in
Snow Depth Not available.
7:26 AM 5:25 PM
Waning Crescent, 0% visible
METAR KKLS 080355Z AUTO 00000KT 10SM CLR 09/06 A3048 RMK AO1

10-Day Weather Forecast

Almanac

Astronomy

Feb. 07, 2016 Rise Set
Actual Time
Civil Twilight
Nautical Twilight
Astronomical Twilight
Moon
Length of Visible Light
Length of Day
Tomorrow will be .
, % of the Moon is Illuminated

Today's Extremes

State Highs State Lows

Community

WunderPhotos

Upload Photos

1,891,379 photos uploaded!

WunderBlog® & News

Nearby

Air Quality

  Air Quality AQ Index Pollutant
Not available.

Snow Depth

Station Depth Elevation

Earthquake Activity

City Distance Mag. Time & Date
Minimum magnitude displayed is 2.5.

Coastal Water Temperatures

Place Temperature

Stations

Nearby Weather Stations

Station Location Temp. Windchill Dew Point Humidity Wind Precip. Elev Updated Type
                   

Watches & Warnings

There are currently no watches in effect.